Main page
METAR-TAF:

METAR-TAF

Airports :

Khrabrovo Airport

Kaliningrad, Russia

latitude: 54-43-12N, longitude: 020-30E, elevation: 21 m

Current weather observation

The report was made 24 minutes ago, at 09:30 UTC
Wind 4 kt from the South
Temperature 1°C
Humidity 100%
Pressure 1014 hPa
Visibility: 1300 m
Overcast at a height of 200 ft
mist

METAR: UMKK 060930Z 17002MPS 1700 1300E R24/1300N BR OVC002 01/01 Q1014 R24/290095 NOSIG RMK QBB070 OBST OBSC QFE759/1013

Time: 11:54 (09:54 UTC)

Forecast

The report was made 1 hour and 59 minutes ago, at 07:55 UTC
Forecast valid from 06 at 09 UTC to 07 at 09 UTC
Wind 6 kt from the South/Southeast
Visibility: 0800 m
Overcast at a height of 200 ft
fog
Temporary
from 06 at 09 UTC to 07 at 06 UTC
Visibility: 0300 m
at a height of 100 ft
light rain, snow, fog

TAF: UMKK 060755Z 0609/0709 16003MPS 0800 FG OVC002 TEMPO 0609/0706 0300 -RASN FG VV001

Weather observations and forecasts of more than 4000 airports (METAR and TAF reports).

The available stations are represented by yellow and red dots on the map.

Hover mouse over dot to see the name of the station.

Then click to see weather observations and forecasts.

To change the map : click on the green buttons with a black cross to zoom in, on the green button with a dash to zoom out, or on the green arrows for adjacent maps.


METAR-TAF: